createdAt,value
2023-05-02T00:00:45.380Z,92897.00
2023-05-02T00:01:45.421Z,92897.00
2023-05-02T00:02:45.633Z,92897.00
2023-05-02T00:03:45.624Z,92895.00
2023-05-02T00:04:45.486Z,92895.00
2023-05-02T00:05:45.490Z,92895.00
2023-05-02T00:06:45.574Z,92897.00
2023-05-02T00:07:45.544Z,92895.00
2023-05-02T00:08:45.587Z,92897.00
2023-05-02T00:09:45.608Z,92895.00
2023-05-02T00:10:45.637Z,92897.00
2023-05-02T00:11:45.647Z,92897.00
2023-05-02T00:12:45.671Z,92895.00
2023-05-02T00:13:45.688Z,92895.00
2023-05-02T00:14:45.708Z,92891.00
2023-05-02T00:15:45.732Z,92893.00
2023-05-02T00:16:45.775Z,92893.00
2023-05-02T00:17:45.818Z,92891.00
2023-05-02T00:18:45.780Z,92890.00
2023-05-02T00:19:45.809Z,92891.00
2023-05-02T00:20:45.850Z,92893.00
2023-05-02T00:21:45.860Z,92891.00
2023-05-02T00:22:45.958Z,92893.00
2023-05-02T00:23:45.897Z,92895.00
2023-05-02T00:24:45.928Z,92895.00
2023-05-02T00:25:45.966Z,92895.00
2023-05-02T00:26:45.975Z,92897.00
2023-05-02T00:27:45.996Z,92895.00
2023-05-02T00:28:46.030Z,92895.00
2023-05-02T00:29:46.037Z,92895.00
2023-05-02T00:30:46.133Z,92897.00
2023-05-02T00:31:46.081Z,92895.00
2023-05-02T00:32:46.119Z,92891.00
2023-05-02T00:33:46.132Z,92893.00
2023-05-02T00:34:46.169Z,92893.00
2023-05-02T00:35:46.196Z,92895.00
2023-05-02T00:36:46.235Z,92895.00
2023-05-02T00:37:46.254Z,92893.00
2023-05-02T00:38:46.285Z,92893.00
2023-05-02T00:39:46.332Z,92891.00
2023-05-02T00:40:46.364Z,92891.00
2023-05-02T00:41:46.351Z,92891.00
2023-05-02T00:42:46.382Z,92891.00
2023-05-02T00:43:46.401Z,92891.00
2023-05-02T00:44:46.421Z,92893.00
2023-05-02T00:45:46.602Z,92893.00
2023-05-02T00:46:46.585Z,92893.00
2023-05-02T00:47:46.521Z,92891.00
2023-05-02T00:48:46.511Z,92893.00
2023-05-02T00:49:46.552Z,92893.00
2023-05-02T00:50:46.582Z,92893.00
2023-05-02T00:51:46.606Z,92891.00
2023-05-02T00:52:46.625Z,92891.00
2023-05-02T00:53:46.646Z,92891.00
2023-05-02T00:54:46.675Z,92891.00
2023-05-02T00:55:46.705Z,92891.00
2023-05-02T00:56:46.742Z,92891.00
2023-05-02T00:57:46.760Z,92891.00
2023-05-02T00:58:46.785Z,92891.00
2023-05-02T00:59:46.829Z,92890.00
2023-05-02T01:00:46.851Z,92890.00
2023-05-02T01:01:46.911Z,92891.00
2023-05-02T01:02:46.946Z,92891.00
2023-05-02T01:03:47.092Z,92893.00
2023-05-02T01:04:46.960Z,92891.00
2023-05-02T01:05:46.986Z,92891.00
2023-05-02T01:06:47.226Z,92891.00
2023-05-02T01:07:47.045Z,92893.00
2023-05-02T01:08:47.068Z,92893.00
2023-05-02T01:09:47.101Z,92893.00
2023-05-02T01:10:47.113Z,92895.00
2023-05-02T01:11:47.149Z,92895.00
2023-05-02T01:12:47.182Z,92890.00
2023-05-02T01:13:47.207Z,92895.00
2023-05-02T01:14:47.232Z,92895.00
2023-05-02T01:15:47.279Z,92895.00
2023-05-02T01:16:47.281Z,92895.00
2023-05-02T01:17:47.349Z,92890.00
2023-05-02T01:18:47.330Z,92897.00
2023-05-02T01:19:47.349Z,92897.00
2023-05-02T01:20:47.378Z,92891.00
2023-05-02T01:21:47.418Z,92897.00
2023-05-02T01:22:47.521Z,92895.00
2023-05-02T01:23:47.475Z,92897.00
2023-05-02T01:24:47.511Z,92899.00
2023-05-02T01:25:47.544Z,92899.00
2023-05-02T01:26:47.578Z,92899.00
2023-05-02T01:27:47.607Z,92899.00
2023-05-02T01:28:47.637Z,92899.00
2023-05-02T01:29:47.664Z,92895.00
2023-05-02T01:30:47.688Z,92897.00
2023-05-02T01:31:47.757Z,92897.00
2023-05-02T01:32:47.825Z,92897.00
2023-05-02T01:33:47.877Z,92899.00
2023-05-02T01:34:47.823Z,92897.00
2023-05-02T01:35:47.844Z,92897.00
2023-05-02T01:36:47.876Z,92897.00
2023-05-02T01:37:47.914Z,92895.00
2023-05-02T01:38:47.955Z,92897.00
2023-05-02T01:39:47.966Z,92903.00
2023-05-02T01:40:48.013Z,92897.00
2023-05-02T01:41:48.042Z,92897.00
2023-05-02T01:42:48.049Z,92903.00
2023-05-02T01:43:48.120Z,92905.00
2023-05-02T01:44:48.139Z,92899.00
2023-05-02T01:45:48.134Z,92901.00
2023-05-02T01:46:48.208Z,92901.00
2023-05-02T01:47:48.267Z,92901.00
2023-05-02T01:48:48.221Z,92907.00
2023-05-02T01:49:48.249Z,92909.00
2023-05-02T01:50:48.278Z,92909.00
2023-05-02T01:51:48.325Z,92909.00
2023-05-02T01:52:48.345Z,92911.00
2023-05-02T01:53:48.376Z,92905.00
2023-05-02T01:54:48.390Z,92911.00
2023-05-02T01:55:48.428Z,92911.00
2023-05-02T01:56:48.465Z,92911.00
2023-05-02T01:57:48.493Z,92907.00
2023-05-02T01:58:48.518Z,92909.00
2023-05-02T01:59:48.575Z,92913.00
2023-05-02T02:00:48.612Z,92909.00
2023-05-02T02:01:48.627Z,92915.00
2023-05-02T02:02:48.742Z,92909.00
2023-05-02T02:03:48.721Z,92915.00
2023-05-02T02:04:48.858Z,92909.00
2023-05-02T02:05:48.746Z,92909.00
2023-05-02T02:06:48.892Z,92915.00
2023-05-02T02:07:48.789Z,92909.00
2023-05-02T02:08:48.814Z,92915.00
2023-05-02T02:09:48.851Z,92917.00
2023-05-02T02:10:49.005Z,92915.00
2023-05-02T02:11:48.913Z,92915.00
2023-05-02T02:12:48.927Z,92915.00
2023-05-02T02:13:48.956Z,92915.00
2023-05-02T02:14:48.972Z,92913.00
2023-05-02T02:15:49.031Z,92915.00
2023-05-02T02:16:49.095Z,92911.00
2023-05-02T02:17:49.114Z,92915.00
2023-05-02T02:18:49.092Z,92915.00
2023-05-02T02:19:49.118Z,92911.00
2023-05-02T02:20:49.152Z,92915.00
2023-05-02T02:21:49.181Z,92911.00
2023-05-02T02:22:49.210Z,92917.00
2023-05-02T02:23:49.257Z,92919.00
2023-05-02T02:24:49.256Z,92919.00
2023-05-02T02:25:49.305Z,92919.00
2023-05-02T02:26:49.299Z,92923.00
2023-05-02T02:27:49.342Z,92923.00
2023-05-02T02:28:49.355Z,92925.00
2023-05-02T02:29:49.375Z,92925.00
2023-05-02T02:30:49.426Z,92925.00
2023-05-02T02:31:49.423Z,92927.00
2023-05-02T02:32:49.521Z,92927.00
2023-05-02T02:33:49.484Z,92927.00
2023-05-02T02:34:49.511Z,92927.00
2023-05-02T02:35:49.529Z,92925.00
2023-05-02T02:36:49.557Z,92925.00
2023-05-02T02:37:49.579Z,92931.00
2023-05-02T02:38:49.624Z,92931.00
2023-05-02T02:39:49.637Z,92929.00
2023-05-02T02:40:49.684Z,92931.00
2023-05-02T02:41:49.693Z,92925.00
2023-05-02T02:42:49.705Z,92935.00
2023-05-02T02:43:49.719Z,92929.00
2023-05-02T02:44:49.751Z,92927.00
2023-05-02T02:45:49.780Z,92937.00
2023-05-02T02:46:49.851Z,92937.00
2023-05-02T02:47:49.873Z,92935.00
2023-05-02T02:48:49.838Z,92940.00
2023-05-02T02:49:49.902Z,92940.00
2023-05-02T02:50:49.894Z,92942.00
2023-05-02T02:51:49.921Z,92942.00
2023-05-02T02:52:49.941Z,92937.00
2023-05-02T02:53:49.966Z,92938.00
2023-05-02T02:54:49.991Z,92938.00
2023-05-02T02:55:50.010Z,92938.00
2023-05-02T02:56:50.057Z,92937.00
2023-05-02T02:57:50.065Z,92935.00
2023-05-02T02:58:50.111Z,92933.00
2023-05-02T02:59:50.119Z,92940.00
2023-05-02T03:00:50.128Z,92938.00
2023-05-02T03:01:50.206Z,92942.00
2023-05-02T03:02:50.206Z,92938.00
2023-05-02T03:03:50.229Z,92938.00
2023-05-02T03:04:50.224Z,92944.00
2023-05-02T03:05:50.253Z,92940.00
2023-05-02T03:06:50.356Z,92940.00
2023-05-02T03:07:50.315Z,92942.00
2023-05-02T03:08:50.352Z,92942.00
2023-05-02T03:09:50.372Z,92944.00
2023-05-02T03:10:50.391Z,92948.00
2023-05-02T03:11:50.411Z,92942.00
2023-05-02T03:12:50.440Z,92944.00
2023-05-02T03:13:50.463Z,92944.00
2023-05-02T03:14:50.490Z,92946.00
2023-05-02T03:15:50.550Z,92944.00
2023-05-02T03:16:50.548Z,92946.00
2023-05-02T03:17:50.610Z,92942.00
2023-05-02T03:18:50.599Z,92944.00
2023-05-02T03:19:50.628Z,92950.00
2023-05-02T03:20:50.652Z,92944.00
2023-05-02T03:21:50.692Z,92942.00
2023-05-02T03:22:50.723Z,92948.00
2023-05-02T03:23:50.757Z,92942.00
2023-05-02T03:24:50.789Z,92944.00
2023-05-02T03:25:50.823Z,92940.00
2023-05-02T03:26:50.852Z,92942.00
2023-05-02T03:27:50.885Z,92942.00
2023-05-02T03:28:50.919Z,92940.00
2023-05-02T03:29:50.950Z,92940.00
2023-05-02T03:30:50.980Z,92940.00
2023-05-02T03:31:51.066Z,92938.00
2023-05-02T03:32:51.113Z,92940.00
2023-05-02T03:33:51.076Z,92942.00
2023-05-02T03:34:51.123Z,92942.00
2023-05-02T03:35:51.118Z,92942.00
2023-05-02T03:36:51.140Z,92944.00
2023-05-02T03:37:51.143Z,92942.00
2023-05-02T03:38:51.153Z,92946.00
2023-05-02T03:39:51.150Z,92946.00
2023-05-02T03:40:51.150Z,92948.00
2023-05-02T03:41:51.162Z,92946.00
2023-05-02T03:42:51.167Z,92946.00
2023-05-02T03:43:51.178Z,92946.00
2023-05-02T03:44:51.172Z,92950.00
2023-05-02T03:45:51.184Z,92948.00
2023-05-02T03:46:51.250Z,92952.00
2023-05-02T03:47:51.213Z,92952.00
2023-05-02T03:48:51.208Z,92952.00
2023-05-02T03:49:51.208Z,92950.00
2023-05-02T03:50:51.222Z,92950.00
2023-05-02T03:51:51.227Z,92952.00
2023-05-02T03:52:51.228Z,92954.00
2023-05-02T03:53:51.236Z,92954.00
2023-05-02T03:54:51.252Z,92954.00
2023-05-02T03:55:51.244Z,92956.00
2023-05-02T03:56:51.269Z,92954.00
2023-05-02T03:57:51.255Z,92954.00
2023-05-02T03:58:51.392Z,92956.00
2023-05-02T03:59:51.306Z,92958.00
2023-05-02T04:00:51.341Z,92954.00
2023-05-02T04:01:51.422Z,92956.00
2023-05-02T04:02:51.541Z,92956.00
2023-05-02T04:03:51.472Z,92958.00
2023-05-02T04:04:51.482Z,92956.00
2023-05-02T04:05:51.533Z,92956.00
2023-05-02T04:06:51.666Z,92956.00
2023-05-02T04:07:51.566Z,92960.00
2023-05-02T04:08:51.601Z,92960.00
2023-05-02T04:09:51.641Z,92958.00
2023-05-02T04:10:51.663Z,92960.00
2023-05-02T04:11:51.686Z,92962.00
2023-05-02T04:12:51.710Z,92962.00
2023-05-02T04:13:53.439Z,92962.00
2023-05-02T04:14:51.784Z,92964.00
2023-05-02T04:15:51.805Z,92968.00
2023-05-02T04:16:51.881Z,92966.00
2023-05-02T04:17:51.896Z,92968.00
2023-05-02T04:18:51.888Z,92968.00
2023-05-02T04:19:51.901Z,92972.00
2023-05-02T04:20:51.929Z,92972.00
2023-05-02T04:21:51.957Z,92972.00
2023-05-02T04:22:51.985Z,92972.00
2023-05-02T04:23:52.008Z,92972.00
2023-05-02T04:24:52.039Z,92972.00
2023-05-02T04:25:52.062Z,92972.00
2023-05-02T04:26:52.094Z,92972.00
2023-05-02T04:27:52.128Z,92972.00
2023-05-02T04:28:52.163Z,92972.00
2023-05-02T04:29:52.192Z,92970.00
2023-05-02T04:30:52.250Z,92974.00
2023-05-02T04:31:52.232Z,92976.00
2023-05-02T04:32:52.333Z,92978.00
2023-05-02T04:33:52.283Z,92978.00
2023-05-02T04:34:52.342Z,92980.00
2023-05-02T04:35:52.365Z,92982.00
2023-05-02T04:36:52.388Z,92984.00
2023-05-02T04:37:52.417Z,92984.00
2023-05-02T04:38:52.431Z,92985.00
2023-05-02T04:39:52.470Z,92985.00
2023-05-02T04:40:52.502Z,92989.00
2023-05-02T04:41:52.534Z,92987.00
2023-05-02T04:42:52.558Z,92989.00
2023-05-02T04:43:52.580Z,92989.00
2023-05-02T04:44:52.605Z,92989.00
2023-05-02T04:45:52.687Z,92991.00
2023-05-02T04:46:52.686Z,92991.00
2023-05-02T04:47:52.758Z,92991.00
2023-05-02T04:48:52.706Z,92995.00
2023-05-02T04:49:52.748Z,92995.00
2023-05-02T04:50:52.772Z,92999.00
2023-05-02T04:51:52.802Z,92997.00
2023-05-02T04:52:52.830Z,92999.00
2023-05-02T04:53:52.856Z,93003.00
2023-05-02T04:54:52.902Z,93003.00
2023-05-02T04:55:53.252Z,93003.00
2023-05-02T04:56:52.956Z,93005.00
2023-05-02T04:57:53.735Z,93007.00
2023-05-02T04:58:53.007Z,93009.00
2023-05-02T04:59:53.041Z,93009.00
2023-05-02T05:00:53.069Z,93011.00
2023-05-02T05:01:53.137Z,93015.00
2023-05-02T05:02:53.188Z,93011.00
2023-05-02T05:03:53.223Z,93011.00
2023-05-02T05:04:53.263Z,93011.00
2023-05-02T05:05:53.204Z,93013.00
2023-05-02T05:06:53.313Z,93015.00
2023-05-02T05:07:53.263Z,93013.00
2023-05-02T05:08:53.297Z,93017.00
2023-05-02T05:09:53.620Z,93015.00
2023-05-02T05:10:53.362Z,93019.00
2023-05-02T05:11:53.398Z,93023.00
2023-05-02T05:12:53.437Z,93023.00
2023-05-02T05:13:53.452Z,93021.00
2023-05-02T05:14:53.481Z,93021.00
2023-05-02T05:15:53.520Z,93023.00
2023-05-02T05:16:53.555Z,93027.00
2023-05-02T05:17:53.596Z,93025.00
2023-05-02T05:18:53.618Z,93029.00
2023-05-02T05:19:53.669Z,93029.00
2023-05-02T05:20:53.694Z,93029.00
2023-05-02T05:21:53.717Z,93029.00
2023-05-02T05:22:53.754Z,93025.00
2023-05-02T05:23:53.801Z,93031.00
2023-05-02T05:24:53.841Z,93031.00
2023-05-02T05:25:53.837Z,93034.00
2023-05-02T05:26:53.842Z,93034.00
2023-05-02T05:27:53.868Z,93036.00
2023-05-02T05:28:53.876Z,93036.00
2023-05-02T05:29:53.916Z,93040.00
2023-05-02T05:30:53.914Z,93038.00
2023-05-02T05:31:53.960Z,93040.00
2023-05-02T05:32:54.703Z,93042.00
2023-05-02T05:33:54.049Z,93042.00
2023-05-02T05:34:54.053Z,93042.00
2023-05-02T05:35:54.110Z,93044.00
2023-05-02T05:36:54.172Z,93046.00
2023-05-02T05:37:54.237Z,93046.00
2023-05-02T05:38:54.293Z,93048.00
2023-05-02T05:39:54.357Z,93052.00
2023-05-02T05:40:54.404Z,93048.00
2023-05-02T05:41:54.452Z,93050.00
2023-05-02T05:42:54.497Z,93050.00
2023-05-02T05:43:54.540Z,93054.00
2023-05-02T05:44:54.590Z,93056.00
2023-05-02T05:45:54.628Z,93056.00
2023-05-02T05:46:54.760Z,93056.00
2023-05-02T05:47:54.727Z,93054.00
2023-05-02T05:48:54.708Z,93058.00
2023-05-02T05:49:54.750Z,93056.00
2023-05-02T05:50:54.758Z,93058.00
2023-05-02T05:51:54.770Z,93060.00
2023-05-02T05:52:54.790Z,93058.00
2023-05-02T05:53:54.821Z,93062.00
2023-05-02T05:54:54.893Z,93064.00
2023-05-02T05:55:54.823Z,93064.00
2023-05-02T05:56:54.848Z,93064.00
2023-05-02T05:57:54.844Z,93066.00
2023-05-02T05:58:54.912Z,93066.00
2023-05-02T05:59:54.858Z,93070.00
2023-05-02T06:00:54.858Z,93070.00
2023-05-02T06:01:54.872Z,93066.00
2023-05-02T06:02:54.945Z,93070.00
2023-05-02T06:03:54.885Z,93070.00
2023-05-02T06:04:54.906Z,93072.00
2023-05-02T06:05:54.869Z,93068.00
2023-05-02T06:06:54.987Z,93070.00
2023-05-02T06:07:54.852Z,93070.00
2023-05-02T06:08:54.845Z,93072.00
2023-05-02T06:09:54.828Z,93074.00
2023-05-02T06:10:54.824Z,93076.00
2023-05-02T06:11:54.830Z,93078.00
2023-05-02T06:12:55.280Z,93078.00
2023-05-02T06:13:54.818Z,93078.00
2023-05-02T06:14:54.785Z,93079.00
2023-05-02T06:15:54.782Z,93081.00
2023-05-02T06:16:54.775Z,93083.00
2023-05-02T06:17:54.777Z,93085.00
2023-05-02T06:18:54.739Z,93083.00
2023-05-02T06:19:54.727Z,93085.00
2023-05-02T06:20:54.702Z,93085.00
2023-05-02T06:21:54.674Z,93091.00
2023-05-02T06:22:54.653Z,93091.00
2023-05-02T06:23:54.647Z,93089.00
2023-05-02T06:24:54.684Z,93089.00
2023-05-02T06:25:54.629Z,93091.00
2023-05-02T06:26:54.645Z,93093.00
2023-05-02T06:27:54.698Z,93093.00
2023-05-02T06:28:54.598Z,93095.00
2023-05-02T06:29:54.598Z,93093.00
2023-05-02T06:30:54.571Z,93097.00
2023-05-02T06:31:54.590Z,93097.00
2023-05-02T06:32:54.707Z,93097.00
2023-05-02T06:33:55.196Z,93095.00
2023-05-02T06:34:54.549Z,93097.00
2023-05-02T06:35:54.519Z,93095.00
2023-05-02T06:36:54.502Z,93097.00
2023-05-02T06:37:54.494Z,93097.00
2023-05-02T06:38:55.195Z,93099.00
2023-05-02T06:39:54.504Z,93103.00
2023-05-02T06:40:54.489Z,93101.00
2023-05-02T06:41:54.477Z,93101.00
2023-05-02T06:42:54.483Z,93105.00
2023-05-02T06:43:54.473Z,93103.00
2023-05-02T06:44:54.470Z,93103.00
2023-05-02T06:45:54.472Z,93109.00
2023-05-02T06:46:54.463Z,93109.00
2023-05-02T06:47:54.481Z,93109.00
2023-05-02T06:48:54.444Z,93109.00
2023-05-02T06:49:54.406Z,93111.00
2023-05-02T06:50:54.423Z,93111.00
2023-05-02T06:51:54.397Z,93111.00
2023-05-02T06:52:54.387Z,93113.00
2023-05-02T06:53:54.376Z,93113.00
2023-05-02T06:54:54.359Z,93111.00
2023-05-02T06:55:54.383Z,93115.00
2023-05-02T06:56:54.422Z,93113.00
2023-05-02T06:57:54.465Z,93111.00
2023-05-02T06:58:54.567Z,93111.00
2023-05-02T06:59:54.530Z,93113.00
2023-05-02T07:00:54.625Z,93113.00
2023-05-02T07:01:54.613Z,93115.00
2023-05-02T07:02:54.662Z,93113.00
2023-05-02T07:03:54.692Z,93115.00
2023-05-02T07:04:54.615Z,93117.00
2023-05-02T07:05:54.617Z,93117.00
2023-05-02T07:06:54.661Z,93113.00
2023-05-02T07:07:54.616Z,93115.00
2023-05-02T07:08:54.605Z,93115.00
2023-05-02T07:09:54.618Z,93119.00
2023-05-02T07:10:54.598Z,93119.00
2023-05-02T07:11:54.613Z,93119.00
2023-05-02T07:12:54.606Z,93117.00
2023-05-02T07:13:54.617Z,93117.00
2023-05-02T07:14:54.689Z,93115.00
2023-05-02T07:15:54.724Z,93117.00
2023-05-02T07:16:54.824Z,93117.00
2023-05-02T07:17:54.835Z,93117.00
2023-05-02T07:18:54.923Z,93119.00
2023-05-02T07:19:54.902Z,93119.00
2023-05-02T07:20:54.956Z,93117.00
2023-05-02T07:21:55.033Z,93119.00
2023-05-02T07:22:54.994Z,93123.00
2023-05-02T07:23:54.995Z,93123.00
2023-05-02T07:24:55.027Z,93123.00
2023-05-02T07:25:54.984Z,93121.00
2023-05-02T07:26:55.001Z,93125.00
2023-05-02T07:27:54.997Z,93125.00
2023-05-02T07:28:54.982Z,93123.00
2023-05-02T07:29:54.980Z,93125.00
2023-05-02T07:30:54.975Z,93132.00
2023-05-02T07:31:55.026Z,93132.00
2023-05-02T07:32:55.838Z,93132.00
2023-05-02T07:33:54.958Z,93132.00
2023-05-02T07:34:54.958Z,93125.00
2023-05-02T07:35:54.941Z,93125.00
2023-05-02T07:36:54.933Z,93123.00
2023-05-02T07:37:54.924Z,93125.00
2023-05-02T07:38:54.933Z,93132.00
2023-05-02T07:39:54.935Z,93132.00
2023-05-02T07:40:54.927Z,93132.00
2023-05-02T07:41:54.889Z,93132.00
2023-05-02T07:42:54.885Z,93132.00
2023-05-02T07:43:54.876Z,93136.00
2023-05-02T07:44:55.888Z,93132.00
2023-05-02T07:45:54.932Z,93136.00
2023-05-02T07:46:54.856Z,93138.00
2023-05-02T07:47:54.842Z,93138.00
2023-05-02T07:48:54.826Z,93140.00
2023-05-02T07:49:54.813Z,93140.00
2023-05-02T07:50:54.801Z,93142.00
2023-05-02T07:51:54.794Z,93144.00
2023-05-02T07:52:54.784Z,93144.00
2023-05-02T07:53:54.778Z,93144.00
2023-05-02T07:54:54.765Z,93146.00
2023-05-02T07:55:54.789Z,93144.00
2023-05-02T07:56:55.803Z,93146.00
2023-05-02T07:57:54.856Z,93148.00
2023-05-02T07:58:54.900Z,93148.00
2023-05-02T07:59:54.910Z,93150.00
2023-05-02T08:00:54.939Z,93148.00
2023-05-02T08:01:54.958Z,93150.00
2023-05-02T08:02:55.113Z,93148.00
2023-05-02T08:03:55.967Z,93150.00
2023-05-02T08:04:55.034Z,93148.00
2023-05-02T08:05:55.028Z,93148.00
2023-05-02T08:06:55.135Z,93148.00
2023-05-02T08:07:54.995Z,93148.00
2023-05-02T08:08:54.990Z,93150.00
2023-05-02T08:09:55.804Z,93150.00
2023-05-02T08:10:54.996Z,93148.00
2023-05-02T08:11:55.005Z,93148.00
2023-05-02T08:12:55.827Z,93152.00
2023-05-02T08:13:55.011Z,93150.00
2023-05-02T08:14:54.995Z,93152.00
2023-05-02T08:15:55.376Z,93152.00
2023-05-02T08:16:55.014Z,93154.00
2023-05-02T08:17:55.038Z,93152.00
2023-05-02T08:18:55.061Z,93154.00
2023-05-02T08:19:55.033Z,93156.00
2023-05-02T08:20:55.061Z,93154.00
2023-05-02T08:21:55.133Z,93156.00
2023-05-02T08:22:55.174Z,93152.00
2023-05-02T08:23:55.189Z,93154.00
2023-05-02T08:24:55.230Z,93154.00
2023-05-02T08:25:55.810Z,93154.00
2023-05-02T08:26:55.335Z,93154.00
2023-05-02T08:27:58.843Z,93156.00
2023-05-02T08:28:55.395Z,93158.00
2023-05-02T08:29:55.990Z,93158.00
2023-05-02T08:30:55.483Z,93160.00
2023-05-02T08:31:55.442Z,93160.00
2023-05-02T08:32:55.484Z,93162.00
2023-05-02T08:33:56.326Z,93163.00
2023-05-02T08:34:55.379Z,93163.00
2023-05-02T08:35:55.319Z,93162.00
2023-05-02T08:36:58.053Z,93160.00
2023-05-02T08:37:55.287Z,93163.00
2023-05-02T08:38:55.289Z,93162.00
2023-05-02T08:39:55.249Z,93160.00
2023-05-02T08:40:55.242Z,93162.00
2023-05-02T08:41:55.221Z,93163.00
2023-05-02T08:42:55.215Z,93163.00
2023-05-02T08:43:55.191Z,93163.00
2023-05-02T08:44:55.190Z,93165.00
2023-05-02T08:45:55.167Z,93165.00
2023-05-02T08:46:55.225Z,93167.00
2023-05-02T08:47:55.152Z,93165.00
2023-05-02T08:48:55.121Z,93169.00
2023-05-02T08:49:55.105Z,93169.00
2023-05-02T08:50:55.078Z,93169.00
2023-05-02T08:51:55.045Z,93171.00
2023-05-02T08:52:55.030Z,93169.00
2023-05-02T08:53:55.013Z,93171.00
2023-05-02T08:54:54.996Z,93171.00
2023-05-02T08:55:55.757Z,93171.00
2023-05-02T08:56:54.967Z,93171.00
2023-05-02T08:57:54.934Z,93171.00
2023-05-02T08:58:54.923Z,93171.00
2023-05-02T08:59:54.910Z,93173.00
2023-05-02T09:00:54.942Z,93171.00
2023-05-02T09:01:54.857Z,93175.00
2023-05-02T09:02:54.888Z,93175.00
2023-05-02T09:03:54.856Z,93175.00
2023-05-02T09:04:54.809Z,93175.00
2023-05-02T09:05:54.792Z,93175.00
2023-05-02T09:06:54.815Z,93173.00
2023-05-02T09:07:54.756Z,93175.00
2023-05-02T09:08:54.783Z,93177.00
2023-05-02T09:09:54.707Z,93175.00
2023-05-02T09:10:54.688Z,93173.00
2023-05-02T09:11:54.675Z,93177.00
2023-05-02T09:12:54.649Z,93175.00
2023-05-02T09:13:54.636Z,93175.00
2023-05-02T09:14:55.343Z,93181.00
2023-05-02T09:15:54.837Z,93177.00
2023-05-02T09:16:54.920Z,93179.00
2023-05-02T09:17:54.831Z,93177.00
2023-05-02T09:18:54.782Z,93171.00
2023-05-02T09:19:54.774Z,93171.00
2023-05-02T09:20:54.741Z,93175.00
2023-05-02T09:21:54.737Z,93173.00
2023-05-02T09:22:54.701Z,93169.00
2023-05-02T09:23:54.684Z,93173.00
2023-05-02T09:24:54.660Z,93169.00
2023-05-02T09:25:54.648Z,93171.00
2023-05-02T09:26:54.624Z,93171.00
2023-05-02T09:27:54.600Z,93171.00
2023-05-02T09:28:54.585Z,93173.00
2023-05-02T09:29:54.613Z,93173.00
2023-05-02T09:30:54.693Z,93173.00
2023-05-02T09:31:56.676Z,93171.00
2023-05-02T09:32:54.751Z,93179.00
2023-05-02T09:33:54.764Z,93177.00
2023-05-02T09:34:54.794Z,93179.00
2023-05-02T09:35:54.836Z,93181.00
2023-05-02T09:36:54.985Z,93179.00
2023-05-02T09:37:54.877Z,93177.00
2023-05-02T09:38:54.973Z,93181.00
2023-05-02T09:39:54.935Z,93179.00
2023-05-02T09:40:54.951Z,93183.00
2023-05-02T09:41:55.073Z,93183.00
2023-05-02T09:42:55.023Z,93185.00
2023-05-02T09:43:55.029Z,93181.00
2023-05-02T09:44:55.050Z,93183.00
2023-05-02T09:45:55.089Z,93183.00
2023-05-02T09:46:55.097Z,93187.00
2023-05-02T09:47:55.258Z,93187.00
2023-05-02T09:48:55.096Z,93189.00
2023-05-02T09:49:55.091Z,93183.00
2023-05-02T09:50:55.107Z,93185.00
2023-05-02T09:51:55.106Z,93187.00
2023-05-02T09:52:55.128Z,93183.00
2023-05-02T09:53:55.158Z,93183.00
2023-05-02T09:54:55.116Z,93181.00
2023-05-02T09:55:55.112Z,93187.00
2023-05-02T09:56:55.117Z,93185.00
2023-05-02T09:57:55.854Z,93187.00
2023-05-02T09:58:55.124Z,93185.00
2023-05-02T09:59:55.115Z,93185.00
2023-05-02T10:00:55.118Z,93189.00
2023-05-02T10:01:55.205Z,93187.00
2023-05-02T10:02:55.136Z,93189.00
2023-05-02T10:03:55.069Z,93187.00
2023-05-02T10:04:55.062Z,93189.00
2023-05-02T10:05:55.206Z,93189.00
2023-05-02T10:06:55.009Z,93191.00
2023-05-02T10:07:54.975Z,93191.00
2023-05-02T10:08:55.966Z,93191.00
2023-05-02T10:09:54.911Z,93193.00
2023-05-02T10:10:54.875Z,93193.00
2023-05-02T10:11:54.854Z,93199.00
2023-05-02T10:12:54.853Z,93191.00
2023-05-02T10:13:56.460Z,93183.00
2023-05-02T10:14:54.793Z,93187.00
2023-05-02T10:15:56.432Z,93183.00
2023-05-02T10:16:54.740Z,93181.00
2023-05-02T10:17:54.766Z,93183.00
2023-05-02T10:18:54.749Z,93183.00
2023-05-02T10:19:55.327Z,93181.00
2023-05-02T10:20:54.671Z,93181.00
2023-05-02T10:21:59.374Z,93179.00
2023-05-02T10:22:55.368Z,93179.00
2023-05-02T10:23:54.596Z,93179.00
2023-05-02T10:24:55.371Z,93177.00
2023-05-02T10:25:54.585Z,93177.00
2023-05-02T10:26:56.446Z,93177.00
2023-05-02T10:27:54.525Z,93177.00
2023-05-02T10:28:54.487Z,93173.00
2023-05-02T10:29:57.366Z,93175.00
2023-05-02T10:30:54.463Z,93175.00
2023-05-02T10:31:54.500Z,93175.00
2023-05-02T10:32:54.505Z,93173.00
2023-05-02T10:33:54.399Z,93169.00
2023-05-02T10:34:54.367Z,93167.00
2023-05-02T10:35:54.352Z,93167.00
2023-05-02T10:36:54.339Z,93167.00
2023-05-02T10:37:54.332Z,93163.00
2023-05-02T10:38:54.311Z,93162.00
2023-05-02T10:39:54.290Z,93160.00
2023-05-02T10:40:54.278Z,93162.00
2023-05-02T10:41:54.255Z,93162.00
2023-05-02T10:43:01.866Z,93160.00
2023-05-02T10:43:54.210Z,93160.00
2023-05-02T10:44:55.876Z,93158.00
2023-05-02T10:45:54.192Z,93156.00
2023-05-02T10:46:54.196Z,93156.00
2023-05-02T10:47:54.886Z,93156.00
2023-05-02T10:48:54.146Z,93154.00
2023-05-02T10:49:58.905Z,93156.00
2023-05-02T10:50:54.093Z,93154.00
2023-05-02T10:51:54.082Z,93152.00
2023-05-02T10:52:54.058Z,93152.00
2023-05-02T10:53:59.373Z,93150.00
2023-05-02T10:54:54.011Z,93150.00
2023-05-02T10:55:54.037Z,93148.00
2023-05-02T10:56:54.069Z,93148.00
2023-05-02T10:57:54.119Z,93144.00
2023-05-02T10:58:54.179Z,93146.00
2023-05-02T10:59:54.227Z,93146.00
2023-05-02T11:00:54.301Z,93144.00
2023-05-02T11:01:54.300Z,93144.00
2023-05-02T11:02:54.402Z,93140.00
2023-05-02T11:03:54.351Z,93142.00
2023-05-02T11:04:54.370Z,93142.00
2023-05-02T11:05:54.437Z,93140.00
2023-05-02T11:06:54.488Z,93138.00
2023-05-02T11:07:54.539Z,93138.00
2023-05-02T11:08:54.578Z,93136.00
2023-05-02T11:09:54.617Z,93138.00
2023-05-02T11:10:54.688Z,93140.00
2023-05-02T11:11:54.731Z,93138.00
2023-05-02T11:12:54.788Z,93138.00
2023-05-02T11:13:54.841Z,93142.00
2023-05-02T11:14:54.877Z,93140.00
2023-05-02T11:15:54.911Z,93138.00
2023-05-02T11:16:55.132Z,93136.00
2023-05-02T11:17:55.016Z,93134.00
2023-05-02T11:18:54.992Z,93136.00
2023-05-02T11:19:55.004Z,93134.00
2023-05-02T11:20:55.032Z,93134.00
2023-05-02T11:21:55.056Z,93136.00
2023-05-02T11:22:55.220Z,93125.00
2023-05-02T11:23:55.137Z,93134.00
2023-05-02T11:24:55.115Z,93132.00
2023-05-02T11:25:55.213Z,93134.00
2023-05-02T11:26:55.249Z,93132.00
2023-05-02T11:27:55.283Z,93132.00
2023-05-02T11:28:55.357Z,93134.00
2023-05-02T11:29:55.399Z,93136.00
2023-05-02T11:30:56.685Z,93136.00
2023-05-02T11:31:55.593Z,93136.00
2023-05-02T11:32:55.578Z,93136.00
2023-05-02T11:33:55.618Z,93138.00
2023-05-02T11:34:55.668Z,93136.00
2023-05-02T11:35:55.722Z,93132.00
2023-05-02T11:36:55.758Z,93132.00
2023-05-02T11:37:55.758Z,93132.00
2023-05-02T11:38:55.752Z,93125.00
2023-05-02T11:39:55.772Z,93123.00
2023-05-02T11:40:55.739Z,93125.00
2023-05-02T11:41:55.747Z,93132.00
2023-05-02T11:42:55.772Z,93132.00
2023-05-02T11:43:55.775Z,93134.00
2023-05-02T11:44:55.772Z,93125.00